OAS8535 SKRG-SKBO
Flight info
| Callsign | OAS8535 |
|---|---|
| Flight time | 0h 26m |
| Altitude | 23000 |
| Route | ISVAT2B ISVAT ISVAT5E |
| Aircraft | A320/M-SDE3FGHIRWY/LB1 |
Departure
| Time | 2026-04-22 20:32 |
|---|---|
| Airport | Jose Maria Córdova International Airport (SKRG) |
Arrival
| Time | 2026-04-22 20:58 |
|---|---|
| Airport | El Dorado International Airport (SKBO) |
| Time | Latitude | Longitude | Altitude | Speed | Heading |
|---|---|---|---|---|---|
| 2026-04-22 20:16 | 6.17041 | -75.42716 | 7016 ft | 0 kts | 306° |
| 2026-04-22 20:23 | 6.17041 | -75.42715 | 7016 ft | 1 kts | 306° |
| 2026-04-22 20:24 | 6.17026 | -75.42695 | 7016 ft | 4 kts | 309° |
| 2026-04-22 20:24 | 6.17015 | -75.42682 | 7022 ft | 2 kts | 334° |
| 2026-04-22 20:24 | 6.17004 | -75.42679 | 7016 ft | 2 kts | 28° |
| 2026-04-22 20:24 | 6.16994 | -75.42685 | 7016 ft | 2 kts | 40° |
| 2026-04-22 20:25 | 6.16986 | -75.42692 | 7016 ft | 2 kts | 43° |
| 2026-04-22 20:25 | 6.16982 | -75.42695 | 7016 ft | 0 kts | 43° |
| 2026-04-22 20:26 | 6.16985 | -75.42692 | 7018 ft | 4 kts | 43° |
| 2026-04-22 20:26 | 6.17043 | -75.42641 | 7017 ft | 13 kts | 54° |
| 2026-04-22 20:27 | 6.17015 | -75.42572 | 7017 ft | 11 kts | 143° |
| 2026-04-22 20:27 | 6.16954 | -75.42536 | 7016 ft | 10 kts | 151° |
| 2026-04-22 20:27 | 6.16898 | -75.42504 | 7019 ft | 9 kts | 150° |
| 2026-04-22 20:27 | 6.16846 | -75.42483 | 7014 ft | 8 kts | 184° |
| 2026-04-22 20:28 | 6.16786 | -75.42485 | 7014 ft | 12 kts | 180° |
| 2026-04-22 20:28 | 6.16665 | -75.42484 | 7007 ft | 23 kts | 180° |
| 2026-04-22 20:28 | 6.16486 | -75.42483 | 6998 ft | 28 kts | 179° |
| 2026-04-22 20:28 | 6.16296 | -75.42481 | 6986 ft | 25 kts | 179° |
| 2026-04-22 20:29 | 6.16175 | -75.42480 | 6986 ft | 27 kts | 180° |
| 2026-04-22 20:29 | 6.15919 | -75.42479 | 6982 ft | 25 kts | 180° |
| 2026-04-22 20:29 | 6.15800 | -75.42479 | 6981 ft | 26 kts | 180° |
| 2026-04-22 20:29 | 6.15615 | -75.42478 | 6980 ft | 27 kts | 179° |
| 2026-04-22 20:30 | 6.15425 | -75.42476 | 6979 ft | 28 kts | 179° |
| 2026-04-22 20:30 | 6.15231 | -75.42474 | 6978 ft | 28 kts | 179° |
| 2026-04-22 20:30 | 6.15034 | -75.42473 | 6977 ft | 29 kts | 179° |
| 2026-04-22 20:30 | 6.14899 | -75.42441 | 6977 ft | 10 kts | 104° |
| 2026-04-22 20:31 | 6.14900 | -75.42372 | 6977 ft | 10 kts | 76° |
| 2026-04-22 20:31 | 6.14951 | -75.42314 | 6977 ft | 13 kts | 34° |
| 2026-04-22 20:31 | 6.15041 | -75.42304 | 6978 ft | 15 kts | 360° |
| 2026-04-22 20:31 | 6.15304 | -75.42306 | 6980 ft | 72 kts | 359° |
| 2026-04-22 20:32 | 6.16027 | -75.42312 | 6981 ft | 133 kts | 359° |
| 2026-04-22 20:32 | 6.17120 | -75.42320 | 7047 ft | 177 kts | 359° |
| 2026-04-22 20:32 | 6.18370 | -75.42333 | 7703 ft | 181 kts | 359° |
| 2026-04-22 20:32 | 6.19636 | -75.42348 | 8463 ft | 183 kts | 359° |
| 2026-04-22 20:33 | 6.20911 | -75.42333 | 9051 ft | 186 kts | 8° |
| 2026-04-22 20:33 | 6.22091 | -75.41741 | 9228 ft | 204 kts | 49° |
| 2026-04-22 20:33 | 6.22617 | -75.40377 | 9465 ft | 222 kts | 93° |
| 2026-04-22 20:33 | 6.22094 | -75.38909 | 9939 ft | 229 kts | 130° |
| 2026-04-22 20:34 | 6.20965 | -75.37756 | 10367 ft | 243 kts | 130° |
| 2026-04-22 20:34 | 6.19964 | -75.36385 | 11059 ft | 242 kts | 123° |
| 2026-04-22 20:34 | 6.19073 | -75.34960 | 11772 ft | 241 kts | 122° |
| 2026-04-22 20:34 | 6.18193 | -75.33516 | 12427 ft | 243 kts | 123° |
| 2026-04-22 20:35 | 6.17254 | -75.32083 | 12923 ft | 253 kts | 133° |
| 2026-04-22 20:35 | 6.15794 | -75.31019 | 13142 ft | 272 kts | 158° |
| 2026-04-22 20:35 | 6.13964 | -75.30282 | 13352 ft | 295 kts | 160° |
| 2026-04-22 20:35 | 6.11977 | -75.29495 | 13531 ft | 319 kts | 159° |
| 2026-04-22 20:36 | 6.09841 | -75.28650 | 13696 ft | 341 kts | 159° |
| 2026-04-22 20:36 | 6.07590 | -75.27755 | 14148 ft | 352 kts | 159° |
| 2026-04-22 20:36 | 6.05264 | -75.26828 | 14785 ft | 357 kts | 159° |
| 2026-04-22 20:36 | 6.02945 | -75.25898 | 15429 ft | 361 kts | 159° |
| 2026-04-22 20:37 | 6.00606 | -75.24958 | 16065 ft | 363 kts | 159° |
| 2026-04-22 20:37 | 5.98248 | -75.24012 | 16677 ft | 366 kts | 159° |
| 2026-04-22 20:37 | 5.95871 | -75.23060 | 17252 ft | 369 kts | 158° |
| 2026-04-22 20:37 | 5.93470 | -75.22103 | 17822 ft | 373 kts | 159° |
| 2026-04-22 20:38 | 5.91049 | -75.21136 | 18389 ft | 376 kts | 158° |
| 2026-04-22 20:38 | 5.88605 | -75.20160 | 18941 ft | 380 kts | 159° |
| 2026-04-22 20:38 | 5.86139 | -75.19175 | 19464 ft | 383 kts | 159° |
| 2026-04-22 20:38 | 5.83650 | -75.18180 | 19976 ft | 387 kts | 159° |
| 2026-04-22 20:39 | 5.81143 | -75.17175 | 20471 ft | 390 kts | 159° |
| 2026-04-22 20:39 | 5.78613 | -75.16160 | 20947 ft | 393 kts | 159° |
| 2026-04-22 20:39 | 5.76061 | -75.15134 | 21399 ft | 397 kts | 159° |
| 2026-04-22 20:39 | 5.73485 | -75.14100 | 21842 ft | 400 kts | 159° |
| 2026-04-22 20:40 | 5.70892 | -75.13063 | 22276 ft | 403 kts | 159° |
| 2026-04-22 20:40 | 5.68275 | -75.12017 | 22697 ft | 406 kts | 159° |
| 2026-04-22 20:40 | 5.65642 | -75.10948 | 23017 ft | 410 kts | 158° |
| 2026-04-22 20:40 | 5.63021 | -75.09869 | 23080 ft | 399 kts | 158° |
| 2026-04-22 20:41 | 5.60496 | -75.08821 | 23073 ft | 389 kts | 158° |
| 2026-04-22 20:41 | 5.58039 | -75.07798 | 23061 ft | 386 kts | 158° |
| 2026-04-22 20:41 | 5.55526 | -75.06753 | 23046 ft | 386 kts | 158° |
| 2026-04-22 20:41 | 5.53047 | -75.05724 | 23035 ft | 385 kts | 158° |
| 2026-04-22 20:42 | 5.50569 | -75.04702 | 23012 ft | 385 kts | 158° |
| 2026-04-22 20:42 | 5.48124 | -75.03698 | 23005 ft | 385 kts | 158° |
| 2026-04-22 20:42 | 5.45642 | -75.02680 | 22992 ft | 385 kts | 158° |
| 2026-04-22 20:42 | 5.43176 | -75.01666 | 22838 ft | 378 kts | 158° |
| 2026-04-22 20:43 | 5.40781 | -75.00681 | 22586 ft | 368 kts | 158° |
| 2026-04-22 20:43 | 5.38431 | -74.99712 | 22338 ft | 363 kts | 158° |
| 2026-04-22 20:43 | 5.36137 | -74.98758 | 21948 ft | 352 kts | 158° |
| 2026-04-22 20:43 | 5.33912 | -74.97817 | 21499 ft | 343 kts | 158° |
| 2026-04-22 20:44 | 5.31742 | -74.96894 | 21058 ft | 335 kts | 158° |
| 2026-04-22 20:44 | 5.29620 | -74.95987 | 20646 ft | 329 kts | 157° |
| 2026-04-22 20:44 | 5.27507 | -74.95086 | 20224 ft | 330 kts | 158° |
| 2026-04-22 20:44 | 5.25382 | -74.94182 | 19828 ft | 338 kts | 158° |
| 2026-04-22 20:45 | 5.23209 | -74.93243 | 19370 ft | 338 kts | 154° |
| 2026-04-22 20:45 | 5.21250 | -74.92007 | 18951 ft | 329 kts | 141° |
| 2026-04-22 20:45 | 5.19642 | -74.90392 | 18661 ft | 333 kts | 128° |
| 2026-04-22 20:45 | 5.18368 | -74.88423 | 18420 ft | 339 kts | 120° |
| 2026-04-22 20:46 | 5.15989 | -74.84304 | 17618 ft | 339 kts | 120° |
| 2026-04-22 20:46 | 5.14810 | -74.82269 | 17370 ft | 336 kts | 120° |
| 2026-04-22 20:46 | 5.13638 | -74.80245 | 17127 ft | 335 kts | 120° |
| 2026-04-22 20:47 | 5.12474 | -74.78229 | 16884 ft | 333 kts | 120° |
| 2026-04-22 20:47 | 5.11313 | -74.76223 | 16637 ft | 332 kts | 120° |
| 2026-04-22 20:47 | 5.10157 | -74.74223 | 16401 ft | 331 kts | 120° |
| 2026-04-22 20:47 | 5.09006 | -74.72232 | 16168 ft | 330 kts | 120° |
| 2026-04-22 20:48 | 5.07858 | -74.70245 | 15911 ft | 328 kts | 120° |
| 2026-04-22 20:48 | 5.06715 | -74.68267 | 15697 ft | 328 kts | 120° |
| 2026-04-22 20:48 | 5.05577 | -74.66292 | 15467 ft | 326 kts | 120° |
| 2026-04-22 20:48 | 5.04439 | -74.64323 | 15224 ft | 326 kts | 121° |
| 2026-04-22 20:49 | 5.03304 | -74.62363 | 14973 ft | 324 kts | 121° |
| 2026-04-22 20:49 | 5.02173 | -74.60411 | 14743 ft | 324 kts | 120° |
| 2026-04-22 20:49 | 5.01047 | -74.58461 | 14516 ft | 322 kts | 120° |
| 2026-04-22 20:49 | 4.99927 | -74.56520 | 14297 ft | 321 kts | 120° |
| 2026-04-22 20:50 | 4.98810 | -74.54583 | 14078 ft | 321 kts | 120° |
| 2026-04-22 20:50 | 4.97687 | -74.52641 | 13854 ft | 321 kts | 121° |
| 2026-04-22 20:50 | 4.96565 | -74.50712 | 13638 ft | 319 kts | 121° |
| 2026-04-22 20:50 | 4.95451 | -74.48797 | 13415 ft | 317 kts | 121° |
| 2026-04-22 20:51 | 4.94343 | -74.46894 | 13203 ft | 316 kts | 121° |
| 2026-04-22 20:51 | 4.93249 | -74.45007 | 12985 ft | 308 kts | 120° |
| 2026-04-22 20:51 | 4.92205 | -74.43196 | 12834 ft | 294 kts | 120° |
| 2026-04-22 20:51 | 4.91148 | -74.41436 | 12831 ft | 295 kts | 124° |
| 2026-04-22 20:52 | 4.89981 | -74.39814 | 12855 ft | 279 kts | 128° |
| 2026-04-22 20:52 | 4.88817 | -74.38307 | 12866 ft | 268 kts | 128° |
| 2026-04-22 20:52 | 4.87713 | -74.36861 | 12874 ft | 255 kts | 128° |
| 2026-04-22 20:52 | 4.86668 | -74.35478 | 12906 ft | 239 kts | 128° |
| 2026-04-22 20:53 | 4.85705 | -74.34203 | 12882 ft | 221 kts | 128° |
| 2026-04-22 20:53 | 4.84804 | -74.33010 | 12661 ft | 208 kts | 128° |
| 2026-04-22 20:53 | 4.83949 | -74.31879 | 12393 ft | 199 kts | 128° |
| 2026-04-22 20:53 | 4.83143 | -74.30813 | 12162 ft | 184 kts | 128° |
| 2026-04-22 20:54 | 4.82392 | -74.29820 | 11910 ft | 175 kts | 128° |
| 2026-04-22 20:54 | 4.81663 | -74.28855 | 11671 ft | 173 kts | 129° |
| 2026-04-22 20:54 | 4.80937 | -74.27896 | 11449 ft | 173 kts | 129° |
| 2026-04-22 20:54 | 4.80212 | -74.26938 | 11223 ft | 172 kts | 128° |
| 2026-04-22 20:55 | 4.79490 | -74.25983 | 10985 ft | 172 kts | 130° |
| 2026-04-22 20:55 | 4.78770 | -74.25031 | 10771 ft | 172 kts | 129° |
| 2026-04-22 20:55 | 4.78048 | -74.24077 | 10540 ft | 171 kts | 129° |
| 2026-04-22 20:55 | 4.77332 | -74.23131 | 10299 ft | 168 kts | 131° |
| 2026-04-22 20:56 | 4.76615 | -74.22182 | 10079 ft | 170 kts | 130° |
| 2026-04-22 20:56 | 4.75901 | -74.21238 | 9853 ft | 169 kts | 130° |
| 2026-04-22 20:56 | 4.75190 | -74.20299 | 9639 ft | 169 kts | 130° |
| 2026-04-22 20:56 | 4.74479 | -74.19358 | 9409 ft | 169 kts | 130° |
| 2026-04-22 20:57 | 4.73769 | -74.18420 | 9187 ft | 169 kts | 130° |
| 2026-04-22 20:57 | 4.73063 | -74.17487 | 8972 ft | 166 kts | 131° |
| 2026-04-22 20:57 | 4.72371 | -74.16571 | 8741 ft | 164 kts | 130° |
| 2026-04-22 20:57 | 4.71675 | -74.15654 | 8512 ft | 165 kts | 130° |
| 2026-04-22 20:58 | 4.70994 | -74.14750 | 8371 ft | 153 kts | 130° |
| 2026-04-22 20:58 | 4.70447 | -74.14031 | 8368 ft | 105 kts | 128° |
| 2026-04-22 20:58 | 4.70110 | -74.13588 | 8369 ft | 55 kts | 127° |
| 2026-04-22 20:58 | 4.69932 | -74.13360 | 8370 ft | 33 kts | 136° |
| 2026-04-22 20:59 | 4.69774 | -74.13313 | 8369 ft | 21 kts | 166° |
| 2026-04-22 20:59 | 4.69758 | -74.13310 | 8369 ft | 0 kts | 169° |
| 2026-04-22 20:59 | 4.69730 | -74.13305 | 8369 ft | 7 kts | 171° |
| 2026-04-22 21:00 | 4.69685 | -74.13297 | 8369 ft | 6 kts | 171° |
| 2026-04-22 21:00 | 4.69661 | -74.13302 | 8369 ft | 1 kts | 263° |
| 2026-04-22 21:00 | 4.69665 | -74.13317 | 8369 ft | 4 kts | 283° |
| 2026-04-22 21:00 | 4.69686 | -74.13359 | 8369 ft | 9 kts | 309° |
| 2026-04-22 21:01 | 4.69727 | -74.13409 | 8370 ft | 10 kts | 310° |
| 2026-04-22 21:01 | 4.69775 | -74.13469 | 8370 ft | 13 kts | 307° |
| 2026-04-22 21:01 | 4.69830 | -74.13541 | 8370 ft | 13 kts | 307° |
| 2026-04-22 21:01 | 4.69890 | -74.13616 | 8370 ft | 14 kts | 311° |
| 2026-04-22 21:02 | 4.69945 | -74.13694 | 8369 ft | 14 kts | 305° |
| 2026-04-22 21:02 | 4.70004 | -74.13771 | 8369 ft | 14 kts | 306° |
| 2026-04-22 21:02 | 4.70077 | -74.13867 | 8369 ft | 20 kts | 306° |
| 2026-04-22 21:02 | 4.70161 | -74.13980 | 8369 ft | 20 kts | 307° |
| 2026-04-22 21:03 | 4.70249 | -74.14094 | 8369 ft | 21 kts | 308° |
| 2026-04-22 21:03 | 4.70337 | -74.14211 | 8369 ft | 21 kts | 307° |
| 2026-04-22 21:03 | 4.70398 | -74.14319 | 8370 ft | 15 kts | 260° |
| 2026-04-22 21:03 | 4.70324 | -74.14391 | 8370 ft | 15 kts | 218° |
| 2026-04-22 21:04 | 4.70237 | -74.14454 | 8370 ft | 16 kts | 216° |
| 2026-04-22 21:04 | 4.70147 | -74.14523 | 8370 ft | 17 kts | 217° |
| 2026-04-22 21:04 | 4.70054 | -74.14594 | 8370 ft | 17 kts | 217° |
| 2026-04-22 21:04 | 4.69956 | -74.14665 | 8370 ft | 18 kts | 217° |
| 2026-04-22 21:05 | 4.69857 | -74.14713 | 8370 ft | 11 kts | 159° |
| 2026-04-22 21:05 | 4.69816 | -74.14667 | 8370 ft | 9 kts | 129° |
| 2026-04-22 21:05 | 4.69775 | -74.14613 | 8370 ft | 10 kts | 128° |
| 2026-04-22 21:05 | 4.69727 | -74.14552 | 8370 ft | 12 kts | 128° |
| 2026-04-22 21:06 | 4.69728 | -74.14487 | 8370 ft | 10 kts | 38° |
| 2026-04-22 21:06 | 4.69747 | -74.14471 | 8370 ft | 0 kts | 38° |